Time;durP1;ratioP1;P1;durP2;ratioP2;P2;SDS_P1;SDS_P2;PMS_P1;PMS_P2;Temp;Humidity;BMP_temperature;BMP_pressure;BME280_temperature;BME280_humidity;BME280_pressure;Samples;Min_cycle;Max_cycle;Signal;HPM_P1;HPM_P2
2022/05/24 00:01:34;;;;;;;0.40;0.40;;;17.50;94.50;16.80;97224.00;;;;5013442;28;20237;-76
2022/05/24 00:04:01;;;;;;;0.77;0.77;;;17.40;95.10;16.80;97231.00;;;;5013661;28;20623;-76
2022/05/24 00:06:32;;;;;;;0.60;0.60;;;17.40;95.30;16.80;97221.00;;;;5013864;28;20379;-76
2022/05/24 00:08:59;;;;;;;0.40;0.40;;;17.30;94.90;16.80;97225.00;;;;5013631;28;20244;-76
2022/05/24 00:11:28;;;;;;;0.70;0.70;;;17.30;94.80;16.70;97234.00;;;;5013371;28;20202;-76
2022/05/24 00:13:54;;;;;;;0.50;0.50;;;17.20;93.40;16.50;97239.00;;;;5013596;28;20220;-75
2022/05/24 00:16:21;;;;;;;0.50;0.50;;;17.10;95.10;16.60;97234.00;;;;5013516;28;20201;-76
2022/05/24 00:18:47;;;;;;;0.57;0.57;;;17.10;95.80;16.40;97239.00;;;;5013573;28;20538;-76
2022/05/24 00:21:14;;;;;;;0.80;0.80;;;17.00;95.50;16.40;97237.00;;;;5013454;28;20247;-76
2022/05/24 00:23:41;;;;;;;0.50;0.50;;;17.00;95.20;16.40;97237.00;;;;5013392;28;20229;-77
2022/05/24 00:26:15;;;;;;;0.63;0.60;;;16.90;95.60;16.30;97233.00;;;;5013540;28;20237;-77
2022/05/24 00:28:42;;;;;;;0.70;0.70;;;16.80;95.30;16.20;97239.00;;;;5013740;28;20701;-76
2022/05/24 00:31:10;;;;;;;0.57;0.57;;;16.80;95.60;16.30;97241.00;;;;5018858;28;20220;-77
2022/05/24 00:33:37;;;;;;;0.77;0.77;;;16.80;96.30;16.20;97249.00;;;;5004831;28;20292;-77
2022/05/24 00:36:04;;;;;;;0.50;0.50;;;16.80;95.60;16.30;97237.00;;;;5020798;28;20217;-77
2022/05/24 00:38:36;;;;;;;0.40;0.40;;;16.80;95.60;16.30;97240.00;;;;5017020;28;20194;-77
2022/05/24 00:41:22;;;;;;;0.70;0.70;;;16.80;95.80;16.30;97240.00;;;;5016699;28;20233;-77
2022/05/24 00:43:55;;;;;;;0.40;0.40;;;16.80;96.60;16.30;97230.00;;;;5016639;28;20197;-76
2022/05/24 00:46:26;;;;;;;0.87;0.80;;;16.80;96.90;16.40;97231.00;;;;5016504;28;20312;-77
2022/05/24 00:49:01;;;;;;;0.50;0.50;;;16.90;96.20;16.30;97230.00;;;;5016604;28;20201;-76
2022/05/24 00:51:35;;;;;;;0.40;0.40;;;16.90;96.50;16.40;97225.00;;;;5016489;28;20233;-76
2022/05/24 00:54:02;;;;;;;0.53;0.53;;;16.90;97.20;16.40;97186.00;;;;5016464;28;20209;-77
2022/05/24 00:56:48;;;;;;;0.60;0.60;;;16.90;96.50;16.50;97212.00;;;;5016257;28;20233;-76
2022/05/24 00:59:26;;;;;;;0.50;0.50;;;16.90;96.60;16.50;97216.00;;;;5016384;28;20671;-76
2022/05/24 01:01:53;;;;;;;0.67;0.67;;;17.00;96.80;16.50;97207.00;;;;5016274;28;20679;-76
2022/05/24 01:04:20;;;;;;;0.57;0.57;;;17.00;97.10;16.50;97218.00;;;;5016312;28;20294;-77
2022/05/24 01:06:47;;;;;;;0.50;0.50;;;17.00;97.60;16.50;97226.00;;;;5016292;28;20205;-76
2022/05/24 01:09:18;;;;;;;0.60;0.60;;;17.00;97.90;16.50;97219.00;;;;5016214;28;20548;-77
2022/05/24 01:11:50;;;;;;;0.60;0.60;;;17.00;98.40;16.50;97238.00;;;;5016234;28;20617;-77
2022/05/24 01:14:20;;;;;;;0.60;0.60;;;17.00;98.70;16.50;97234.00;;;;5016051;28;20225;-77
2022/05/24 01:16:51;;;;;;;0.57;0.57;;;17.10;99.60;16.50;97226.00;;;;5016116;28;20209;-76
2022/05/24 01:19:33;;;;;;;0.70;0.70;;;17.00;99.80;16.50;97219.00;;;;5015991;28;20225;-76
2022/05/24 01:22:14;;;;;;;0.40;0.40;;;17.00;99.70;16.50;97219.00;;;;5015999;28;20276;-76
2022/05/24 01:24:49;;;;;;;0.50;0.50;;;17.00;99.70;16.50;97218.00;;;;5015898;28;20225;-77
2022/05/24 01:27:16;;;;;;;0.67;0.67;;;17.00;99.90;16.40;97214.00;;;;5016202;28;20181;-76
2022/05/24 01:29:43;;;;;;;0.43;0.43;;;17.00;99.90;16.30;97206.00;;;;5015830;28;20208;-77
2022/05/24 01:37:41;;;;;;;0.40;0.40;;;16.90;99.90;16.30;97190.00;;;;5015793;28;20201;-76
2022/05/24 01:40:09;;;;;;;0.50;0.50;;;16.90;99.70;16.30;97202.00;;;;5015697;28;20217;-76
2022/05/24 01:42:37;;;;;;;0.60;0.60;;;16.80;99.50;16.30;97205.00;;;;5015650;28;20245;-76
2022/05/24 01:45:15;;;;;;;0.40;0.40;;;16.80;99.60;16.30;97200.00;;;;5015668;28;20201;-76
2022/05/24 01:47:48;;;;;;;0.43;0.43;;;16.80;98.90;16.20;97207.00;;;;5014261;28;20227;-76
2022/05/24 01:50:21;;;;;;;1.03;1.00;;;16.80;99.20;16.30;97196.00;;;;5015637;28;20188;-77
2022/05/24 01:52:55;;;;;;;0.63;0.63;;;16.80;99.40;16.50;97182.00;;;;5015511;28;20751;-77
2022/05/24 01:55:28;;;;;;;0.50;0.50;;;16.90;98.50;16.30;97190.00;;;;5015623;28;20675;-77
2022/05/24 01:58:02;;;;;;;0.50;0.50;;;16.90;97.30;16.20;97189.00;;;;4998267;28;20228;-78
2022/05/24 02:00:32;;;;;;;0.50;0.50;;;16.80;97.60;16.20;97191.00;;;;5015331;28;20268;-77
2022/05/24 02:03:00;;;;;;;0.47;0.47;;;16.80;98.00;16.20;97183.00;;;;5015353;28;20504;-76
2022/05/24 02:05:33;;;;;;;0.97;0.97;;;16.80;98.30;16.10;97182.00;;;;5015354;28;20626;-75
2022/05/24 02:08:01;;;;;;;0.60;0.60;;;16.60;98.50;16.00;97183.00;;;;5015360;28;20221;-76
2022/05/24 02:10:35;;;;;;;0.67;0.67;;;16.60;99.10;15.90;97183.00;;;;4997980;28;20577;-76
2022/05/24 02:13:03;;;;;;;0.57;0.57;;;16.60;99.30;15.90;97183.00;;;;5015184;28;20208;-76
2022/05/24 02:15:38;;;;;;;0.53;0.53;;;16.50;99.40;15.90;97192.00;;;;5015246;28;20232;-76
2022/05/24 02:18:12;;;;;;;0.73;0.73;;;16.40;99.00;15.80;97200.00;;;;5015194;28;20211;-76
2022/05/24 02:20:42;;;;;;;0.67;0.67;;;16.40;99.10;15.90;97197.00;;;;5015041;28;20213;-77
2022/05/24 02:23:11;;;;;;;0.60;0.60;;;16.40;99.70;15.80;97194.00;;;;5015117;28;20708;-76
2022/05/24 02:25:42;;;;;;;0.70;0.70;;;16.40;99.30;15.80;97197.00;;;;5014955;28;20257;-76
2022/05/24 02:28:11;;;;;;;0.50;0.50;;;16.30;99.20;15.60;97202.00;;;;5015057;28;20186;-77
2022/05/24 02:30:49;;;;;;;0.80;0.80;;;16.20;98.80;15.60;97201.00;;;;5014991;28;20205;-76
2022/05/24 02:33:20;;;;;;;0.50;0.50;;;16.20;99.40;15.60;97188.00;;;;4997650;28;20233;-77
2022/05/24 02:35:47;;;;;;;0.67;0.67;;;16.20;99.60;15.60;97186.00;;;;5014892;28;20217;-75
2022/05/24 02:38:14;;;;;;;0.57;0.57;;;16.20;99.60;15.60;97176.00;;;;5014965;28;20660;-77
2022/05/24 02:43:29;;;;;;;0.70;0.70;;;16.20;99.90;15.60;97178.00;;;;5014722;28;20225;-76
2022/05/24 02:45:56;;;;;;;0.70;0.70;;;16.10;99.90;15.50;97166.00;;;;5014742;28;20205;-76
2022/05/24 02:48:23;;;;;;;0.60;0.60;;;16.10;99.40;15.50;97162.00;;;;5014696;28;20251;-75
2022/05/24 02:50:50;;;;;;;0.80;0.80;;;16.10;99.20;15.40;97168.00;;;;5014615;28;20235;-77
2022/05/24 02:53:17;;;;;;;0.97;0.97;;;16.00;98.90;15.40;97168.00;;;;5014593;28;20198;-77
2022/05/24 02:55:43;;;;;;;0.50;0.50;;;16.00;99.10;15.50;97170.00;;;;5014548;28;20236;-77
2022/05/24 02:58:10;;;;;;;0.40;0.40;;;16.00;99.20;15.40;97167.00;;;;5014620;28;20692;-76
2022/05/24 03:00:37;;;;;;;0.50;0.50;;;16.00;99.40;15.40;97172.00;;;;5013895;28;20264;-76
2022/05/24 03:03:04;;;;;;;0.60;0.60;;;16.00;99.90;15.40;97166.00;;;;5014509;28;20201;-77
2022/05/24 03:05:31;;;;;;;1.80;1.23;;;16.00;99.90;15.40;97150.00;;;;5014384;28;20248;-77
2022/05/24 03:10:43;;;;;;;0.57;0.57;;;15.90;99.90;15.40;97176.00;;;;5014287;28;20214;-75
2022/05/24 03:15:57;;;;;;;0.90;0.90;;;15.90;99.90;15.40;97177.00;;;;5014370;28;20220;-76
2022/05/24 03:18:25;;;;;;;0.50;0.50;;;15.90;99.90;15.30;97174.00;;;;5018726;28;20209;-76
2022/05/24 03:20:51;;;;;;;0.83;0.83;;;15.90;99.90;15.40;97176.00;;;;4997614;28;20233;-74
2022/05/24 03:23:18;;;;;;;0.60;0.60;;;16.00;99.90;15.40;97180.00;;;;5024702;28;20326;-76
2022/05/24 03:25:44;;;;;;;0.60;0.60;;;16.00;99.90;15.50;97175.00;;;;5025904;28;20213;-76
2022/05/24 03:28:11;;;;;;;0.80;0.80;;;16.00;99.90;15.40;97191.00;;;;5008611;28;20253;-76
2022/05/24 03:30:42;;;;;;;0.50;0.50;;;16.00;99.90;15.50;97198.00;;;;5024219;28;20201;-78
2022/05/24 03:33:09;;;;;;;1.40;1.10;;;16.10;99.90;15.40;97199.00;;;;5015485;28;20291;-79
2022/05/24 03:35:36;;;;;;;0.53;0.53;;;16.00;99.90;15.40;97176.00;;;;5014209;28;20212;-77
2022/05/24 03:38:03;;;;;;;0.80;0.80;;;16.00;99.90;15.50;97194.00;;;;5014067;28;20276;-77
2022/05/24 03:40:30;;;;;;;0.60;0.60;;;16.10;99.90;15.50;97180.00;;;;5013841;28;20225;-76
2022/05/24 03:42:57;;;;;;;0.57;0.57;;;16.10;99.90;15.60;97193.00;;;;5013907;28;20197;-77
2022/05/24 03:45:24;;;;;;;0.80;0.80;;;16.10;99.90;15.70;97188.00;;;;4996562;28;20237;-76
2022/05/24 03:47:51;;;;;;;0.80;0.80;;;16.20;99.90;15.60;97185.00;;;;5013885;28;20225;-76
2022/05/24 03:50:22;;;;;;;0.93;0.93;;;16.10;99.90;15.60;97194.00;;;;4996369;28;20236;-75
2022/05/24 03:52:49;;;;;;;0.50;0.50;;;16.20;99.90;15.60;97193.00;;;;5013923;28;20296;-76
2022/05/24 03:55:16;;;;;;;1.23;1.13;;;16.20;99.90;15.60;97190.00;;;;5013818;28;20193;-76
2022/05/24 03:58:01;;;;;;;0.70;0.70;;;16.10;99.90;15.50;97197.00;;;;5013756;28;20228;-76
2022/05/24 04:00:32;;;;;;;0.43;0.43;;;16.10;99.90;15.50;97201.00;;;;5013900;28;20249;-76
2022/05/24 04:03:00;;;;;;;1.07;0.97;;;16.10;99.90;15.60;97194.00;;;;5013607;28;20671;-76
2022/05/24 04:05:28;;;;;;;0.83;0.83;;;16.10;99.90;15.60;97194.00;;;;5013772;28;20212;-77
2022/05/24 04:07:54;;;;;;;1.53;1.43;;;16.10;99.90;15.60;97202.00;;;;5014244;28;20680;-78
2022/05/24 04:10:21;;;;;;;0.57;0.57;;;16.20;99.90;15.70;97201.00;;;;5013607;28;20216;-77
2022/05/24 04:12:49;;;;;;;0.80;0.80;;;16.20;99.90;15.70;97204.00;;;;5016599;28;20193;-77
2022/05/24 04:15:16;;;;;;;0.63;0.63;;;16.20;99.90;15.70;97193.00;;;;5017185;28;20212;-77
2022/05/24 04:17:43;;;;;;;0.60;0.60;;;16.20;99.90;15.60;97205.00;;;;5017010;28;20514;-77
2022/05/24 04:20:10;;;;;;;0.70;0.70;;;16.20;99.90;15.70;97200.00;;;;5016873;28;20304;-77
2022/05/24 04:22:37;;;;;;;0.60;0.60;;;16.30;99.90;15.80;97181.00;;;;5017153;28;20268;-77
2022/05/24 04:25:05;;;;;;;0.90;0.90;;;16.30;99.90;15.80;97191.00;;;;5016878;28;20653;-77
2022/05/24 04:27:34;;;;;;;1.03;1.03;;;16.30;99.90;15.90;97200.00;;;;5016786;28;20233;-77
2022/05/24 04:30:00;;;;;;;0.63;0.63;;;16.40;99.90;16.00;97207.00;;;;5016792;28;20267;-77
2022/05/24 04:32:27;;;;;;;0.50;0.50;;;16.40;99.90;15.90;97210.00;;;;5017005;28;20201;-77
2022/05/24 04:34:53;;;;;;;0.50;0.50;;;16.40;99.90;16.00;97206.00;;;;5016736;28;20194;-78
2022/05/24 04:37:20;;;;;;;0.70;0.70;;;16.50;99.90;16.00;97205.00;;;;5016681;28;20209;-77
2022/05/24 04:39:50;;;;;;;0.60;0.60;;;16.50;99.90;16.00;97209.00;;;;5016613;28;20197;-77
2022/05/24 04:42:19;;;;;;;0.93;0.93;;;16.50;99.90;16.00;97205.00;;;;5016626;28;20225;-77
2022/05/24 04:44:48;;;;;;;0.70;0.70;;;16.60;99.90;16.00;97217.00;;;;5016695;28;20209;-77
2022/05/24 04:47:18;;;;;;;0.60;0.60;;;16.50;99.90;16.10;97229.00;;;;5016475;28;20240;-77
2022/05/24 04:49:50;;;;;;;0.93;0.93;;;16.60;98.70;16.00;97222.00;;;;5016515;28;20661;-77
2022/05/24 04:52:18;;;;;;;0.40;0.40;;;16.50;97.60;16.00;97232.00;;;;5016437;28;20229;-77
2022/05/24 04:54:45;;;;;;;0.60;0.60;;;16.50;96.90;16.10;97237.00;;;;5016431;28;20281;-76
2022/05/24 04:57:13;;;;;;;0.50;0.50;;;16.50;96.80;16.10;97238.00;;;;5016507;28;20206;-77
2022/05/24 04:59:40;;;;;;;1.83;1.30;;;16.50;96.90;16.10;97237.00;;;;5016284;28;20212;-77
2022/05/24 05:02:08;;;;;;;0.40;0.40;;;16.60;97.30;16.00;97257.00;;;;4999181;28;20249;-77
2022/05/24 05:04:35;;;;;;;0.87;0.87;;;16.60;97.60;16.00;97248.00;;;;5016176;28;20229;-77
2022/05/24 05:07:02;;;;;;;0.50;0.50;;;16.50;98.20;16.10;97249.00;;;;5016263;28;20205;-76
2022/05/24 05:09:34;;;;;;;0.43;0.43;;;16.60;97.90;16.20;97253.00;;;;5016128;28;20279;-77
2022/05/24 05:12:03;;;;;;;0.40;0.40;;;16.70;98.20;16.20;97242.00;;;;5016094;28;20642;-77
2022/05/24 05:14:31;;;;;;;0.60;0.60;;;16.70;97.60;16.40;97220.00;;;;5016083;28;20198;-76
2022/05/24 05:16:57;;;;;;;0.60;0.60;;;16.80;97.50;16.50;97246.00;;;;5016192;28;20551;-77
2022/05/24 05:19:24;;;;;;;0.60;0.60;;;16.90;97.90;16.50;97254.00;;;;5016044;28;20259;-77
2022/05/24 05:21:51;;;;;;;0.43;0.43;;;17.00;95.30;16.40;97248.00;;;;5015741;28;20229;-77
2022/05/24 05:24:20;;;;;;;0.40;0.40;;;16.90;94.60;16.50;97254.00;;;;5016067;28;20201;-77
2022/05/24 05:26:49;;;;;;;0.60;0.60;;;16.90;92.30;16.50;97258.00;;;;5015751;28;20236;-77
2022/05/24 05:31:16;;;;;;;0.60;0.60;;;17.00;92.90;16.50;97262.00;;;;5015979;28;20588;-76
2022/05/24 05:32:04;;;;;;;0.67;0.67;;;17.00;93.00;16.60;97271.00;;;;5015573;28;20660;-77
2022/05/24 05:34:33;;;;;;;0.90;0.90;;;17.10;93.80;16.60;97244.00;;;;5015809;28;20695;-77
2022/05/24 05:37:05;;;;;;;0.60;0.60;;;17.10;94.60;16.50;97270.00;;;;5015554;28;20223;-77
2022/05/24 05:39:31;;;;;;;0.60;0.60;;;17.00;93.90;16.50;97262.00;;;;5015820;28;20202;-77
2022/05/24 05:41:57;;;;;;;0.50;0.50;;;17.00;93.10;16.80;97265.00;;;;5015627;28;20228;-81
2022/05/24 05:44:24;;;;;;;0.83;0.80;;;17.10;93.20;16.70;97281.00;;;;5015670;28;20225;-81
2022/05/24 05:46:52;;;;;;;0.40;0.40;;;17.20;92.00;16.70;97281.00;;;;5015690;28;20208;-79
2022/05/24 05:49:20;;;;;;;0.70;0.70;;;17.10;91.20;16.60;97287.00;;;;5015625;28;20225;-80
2022/05/24 05:51:46;;;;;;;0.57;0.57;;;17.10;91.50;16.60;97286.00;;;;5015530;28;20274;-76
2022/05/24 05:54:15;;;;;;;0.50;0.50;;;17.10;91.10;16.60;97300.00;;;;5015480;28;20221;-78
2022/05/24 05:56:42;;;;;;;0.60;0.60;;;17.00;91.50;16.70;97290.00;;;;5015424;28;20312;-77
2022/05/24 05:59:08;;;;;;;0.43;0.43;;;17.10;91.50;16.80;97279.00;;;;5015533;28;20216;-73
2022/05/24 06:01:35;;;;;;;0.67;0.67;;;17.30;92.00;16.80;97277.00;;;;5015290;28;20543;-72
2022/05/24 06:04:03;;;;;;;0.73;0.73;;;17.30;92.20;17.00;97271.00;;;;5015387;28;20201;-74
2022/05/24 06:06:36;;;;;;;0.40;0.40;;;17.40;91.90;17.20;97271.00;;;;5015300;28;20225;-75
2022/05/24 06:09:05;;;;;;;0.40;0.40;;;17.60;91.70;17.20;97277.00;;;;5015282;28;20212;-74
2022/05/24 06:11:34;;;;;;;0.40;0.40;;;17.60;90.90;17.10;97273.00;;;;5015280;28;20280;-74
2022/05/24 06:14:03;;;;;;;0.50;0.50;;;17.60;90.40;17.20;97276.00;;;;5015342;28;20330;-75
2022/05/24 06:16:29;;;;;;;0.40;0.40;;;17.60;90.60;17.20;97276.00;;;;4997981;28;20328;-75
2022/05/24 06:18:56;;;;;;;0.43;0.43;;;17.70;90.20;17.30;97282.00;;;;5015023;28;20294;-75
2022/05/24 06:21:23;;;;;;;0.80;0.80;;;17.80;88.90;17.40;97283.00;;;;5015125;28;20268;-76
2022/05/24 06:23:50;;;;;;;0.50;0.50;;;17.80;88.60;17.40;97290.00;;;;5015118;28;20641;-77
2022/05/24 06:26:18;;;;;;;0.90;0.90;;;17.90;88.50;17.60;97285.00;;;;5014950;28;20228;-76
2022/05/24 06:28:47;;;;;;;0.40;0.40;;;17.90;88.20;17.50;97296.00;;;;5015012;28;20295;-75
2022/05/24 06:31:14;;;;;;;0.50;0.50;;;17.90;86.30;17.40;97273.00;;;;5014926;28;20220;-75
2022/05/24 06:33:41;;;;;;;0.63;0.63;;;17.90;87.50;17.30;97314.00;;;;5014222;28;20276;-74
2022/05/24 06:36:07;;;;;;;1.57;1.47;;;17.80;88.00;17.30;97307.00;;;;5014918;28;20208;-74
2022/05/24 06:38:37;;;;;;;0.40;0.40;;;17.80;88.70;17.30;97315.00;;;;5014675;28;20255;-75
2022/05/24 06:41:06;;;;;;;0.60;0.60;;;17.80;87.60;17.20;97328.00;;;;5014779;28;20282;-75
2022/05/24 06:43:35;;;;;;;0.50;0.50;;;17.70;87.90;17.30;97330.00;;;;5014791;28;20216;-75
2022/05/24 06:46:07;;;;;;;0.60;0.60;;;17.70;87.00;17.00;97339.00;;;;5014731;28;20232;-75
2022/05/24 06:48:34;;;;;;;0.40;0.40;;;17.60;87.90;17.00;97352.00;;;;5015151;28;20233;-75
2022/05/24 06:51:10;;;;;;;0.53;0.53;;;17.50;89.30;16.90;97386.00;;;;5014688;28;20579;-79
2022/05/24 06:53:38;;;;;;;1.07;1.07;;;17.50;83.60;16.70;97432.00;;;;4997559;28;20211;-75
2022/05/24 06:56:08;;;;;;;0.50;0.50;;;16.40;80.30;15.20;97451.00;;;;5014612;28;20208;-75
2022/05/24 06:58:38;;;;;;;0.97;0.97;;;16.10;80.80;14.20;97457.00;;;;5014474;28;20698;-75
2022/05/24 07:03:53;;;;;;;0.40;0.40;;;14.70;90.70;13.80;97448.00;;;;5014624;28;20263;-78
2022/05/24 07:06:20;;;;;;;0.50;0.50;;;14.50;92.00;13.60;97455.00;;;;5014473;28;20616;-85
2022/05/24 07:08:49;;;;;;;0.30;0.30;;;14.30;90.60;13.80;97447.00;;;;5014626;28;20660;-84
2022/05/24 07:11:22;;;;;;;0.50;0.50;;;14.40;92.60;13.90;97446.00;;;;5014558;28;20197;-87
2022/05/24 07:13:49;;;;;;;0.40;0.40;;;14.40;91.90;13.80;97454.00;;;;5014582;28;20194;-85
2022/05/24 07:16:15;;;;;;;0.60;0.60;;;14.40;92.10;13.60;97440.00;;;;5014324;28;20252;-83
2022/05/24 07:18:44;;;;;;;0.70;0.70;;;14.20;88.80;13.50;97449.00;;;;5014292;28;20356;-79
2022/05/24 07:21:13;;;;;;;0.50;0.50;;;14.10;93.00;13.70;97451.00;;;;5014133;28;20224;-82
2022/05/24 07:23:39;;;;;;;0.50;0.50;;;14.30;93.50;13.80;97438.00;;;;5014230;28;20641;-83
2022/05/24 07:26:14;;;;;;;0.50;0.50;;;14.30;91.90;13.80;97407.00;;;;4996753;28;20257;-85
2022/05/24 07:28:41;;;;;;;0.50;0.50;;;14.40;90.40;13.80;97458.00;;;;5014131;28;20643;-84
2022/05/24 07:31:11;;;;;;;0.50;0.50;;;14.40;91.00;13.70;97449.00;;;;5014213;28;20657;-84
2022/05/24 07:33:38;;;;;;;0.90;0.90;;;14.30;89.50;13.80;97446.00;;;;5014093;28;20218;-85
2022/05/24 07:36:08;;;;;;;0.50;0.50;;;14.40;90.60;13.90;97452.00;;;;5014178;28;20208;-84
2022/05/24 07:38:37;;;;;;;0.47;0.47;;;14.40;89.60;14.00;97465.00;;;;5014285;28;20213;-84
2022/05/24 07:46:38;;;;;;;1.00;0.70;;;14.80;89.00;14.10;97478.00;;;;5013819;28;20216;-84
2022/05/24 07:49:05;;;;;;;0.53;0.53;;;14.70;88.70;14.30;97491.00;;;;5013979;28;20284;-83
2022/05/24 07:51:32;;;;;;;0.50;0.50;;;14.80;89.40;14.20;97513.00;;;;5013821;28;20683;-80
2022/05/24 07:53:59;;;;;;;0.50;0.50;;;14.80;89.30;14.10;97502.00;;;;5013802;28;20229;-85
2022/05/24 07:56:25;;;;;;;0.50;0.50;;;14.70;85.60;14.10;97499.00;;;;5013767;28;20267;-83
2022/05/24 07:58:52;;;;;;;0.60;0.60;;;14.70;86.40;14.20;97501.00;;;;5013920;28;20189;-84
2022/05/24 08:01:20;;;;;;;0.50;0.50;;;14.80;87.50;14.40;97514.00;;;;4996521;28;20312;-83
2022/05/24 08:03:49;;;;;;;0.60;0.60;;;15.00;86.30;14.50;97503.00;;;;5013934;28;20521;-82
2022/05/24 08:06:17;;;;;;;0.50;0.50;;;15.00;86.50;14.50;97505.00;;;;5013519;28;20209;-82
2022/05/24 08:08:44;;;;;;;0.70;0.70;;;15.00;85.20;14.60;97512.00;;;;5013732;28;20363;-81
2022/05/24 08:11:10;;;;;;;0.40;0.40;;;15.30;84.30;14.90;97511.00;;;;4996196;28;20233;-82
2022/05/24 08:13:37;;;;;;;0.60;0.60;;;15.40;81.20;14.90;97516.00;;;;4996325;28;20212;-81
2022/05/24 08:16:05;;;;;;;0.50;0.50;;;15.40;79.90;14.90;97488.00;;;;5013628;28;20241;-80
2022/05/24 08:18:32;;;;;;;0.40;0.40;;;15.30;80.60;15.00;97510.00;;;;4996415;28;20205;-82
2022/05/24 08:20:59;;;;;;;0.60;0.60;;;15.50;78.60;15.10;97516.00;;;;5013452;28;20221;-88
2022/05/24 08:23:29;;;;;;;0.50;0.50;;;15.50;78.80;15.20;97473.00;;;;5013548;28;20217;-88
2022/05/24 08:25:55;;;;;;;0.43;0.43;;;15.70;76.20;15.10;97516.00;;;;5013509;28;20260;-89
2022/05/24 08:28:23;;;;;;;0.50;0.50;;;15.60;76.50;15.10;97523.00;;;;5013565;28;20194;-85
2022/05/24 08:30:53;;;;;;;0.40;0.40;;;15.60;76.10;15.30;97522.00;;;;5013467;28;20197;-84
2022/05/24 08:33:24;;;;;;;0.43;0.43;;;15.70;74.40;15.10;97524.00;;;;5013403;28;20205;-82
2022/05/24 08:35:52;;;;;;;0.50;0.50;;;15.70;75.70;15.30;97536.00;;;;5013371;28;20229;-83
2022/05/24 08:38:19;;;;;;;0.50;0.50;;;15.80;74.10;15.30;97533.00;;;;5013492;28;20215;-80
2022/05/24 08:40:49;;;;;;;0.60;0.60;;;15.80;74.00;15.20;97534.00;;;;5013295;28;20224;-83
2022/05/24 08:49:41;;;;;;;0.60;0.60;;;16.00;73.90;15.90;97540.00;;;;4981332;28;20221;-80
2022/05/24 08:52:10;;;;;;;0.50;0.50;;;16.30;75.00;16.20;97529.00;;;;5013171;28;20232;-82
2022/05/24 08:54:40;;;;;;;0.40;0.40;;;16.70;71.70;16.30;97517.00;;;;5013195;28;20550;-83
2022/05/24 08:57:15;;;;;;;0.40;0.40;;;16.80;68.20;16.50;97529.00;;;;5014034;28;20228;-83
2022/05/24 08:59:51;;;;;;;0.40;0.40;;;16.90;67.20;16.50;97529.00;;;;5016434;28;20197;-83
2022/05/24 09:02:20;;;;;;;0.40;0.40;;;16.90;66.70;16.40;97533.00;;;;5016353;28;20228;-83
2022/05/24 09:04:47;;;;;;;0.40;0.40;;;17.00;65.10;16.60;97527.00;;;;4999273;28;20205;-83
2022/05/24 09:07:27;;;;;;;0.50;0.50;;;17.10;65.80;16.60;97523.00;;;;5016279;28;20531;-82
2022/05/24 09:10:03;;;;;;;0.50;0.50;;;17.10;62.70;16.70;97521.00;;;;5016227;28;20283;-82
2022/05/24 09:13:10;;;;;;;0.40;0.40;;;17.30;64.60;16.90;97530.00;;;;5016178;28;20276;-81
2022/05/24 09:15:48;;;;;;;0.47;0.47;;;17.40;61.40;16.90;97539.00;;;;5016130;28;20240;-84
2022/05/24 09:18:28;;;;;;;0.50;0.50;;;17.40;60.40;16.80;97551.00;;;;4998917;28;20304;-86
2022/05/24 09:20:55;;;;;;;0.70;0.70;;;17.30;59.80;16.90;97553.00;;;;5016018;28;20265;-78
2022/05/24 09:23:32;;;;;;;0.50;0.50;;;17.30;60.20;17.00;97557.00;;;;5016131;28;20193;-77
2022/05/24 09:26:02;;;;;;;0.40;0.40;;;17.40;60.70;17.10;97573.00;;;;5016063;28;20236;-80
2022/05/24 09:28:45;;;;;;;0.43;0.43;;;17.50;58.00;17.00;97573.00;;;;5015860;28;20311;-80
2022/05/24 09:31:28;;;;;;;0.40;0.40;;;17.50;56.20;17.10;97579.00;;;;5015068;28;20286;-81
2022/05/24 09:33:58;;;;;;;0.47;0.47;;;17.60;56.30;17.10;97571.00;;;;5016002;28;20221;-83
2022/05/24 09:36:38;;;;;;;0.50;0.50;;;17.60;54.20;17.10;97565.00;;;;5015772;28;20301;-79
2022/05/24 09:39:20;;;;;;;0.50;0.50;;;;;17.20;97590.00;;;;4998644;28;20288;-80
2022/05/24 09:41:55;;;;;;;0.47;0.47;;;17.70;52.70;17.30;97568.00;;;;5015745;28;20229;-81
2022/05/24 09:44:23;;;;;;;0.50;0.50;;;17.70;53.60;17.40;97574.00;;;;5015961;28;20259;-80
2022/05/24 09:46:50;;;;;;;0.50;0.50;;;17.80;52.20;17.40;97578.00;;;;5015758;28;20291;-81
2022/05/24 09:49:28;;;;;;;0.40;0.40;;;17.80;53.70;17.50;97584.00;;;;5015893;28;20264;-82
2022/05/24 09:52:06;;;;;;;0.50;0.50;;;18.00;51.50;17.30;97594.00;;;;5015771;28;20232;-83
2022/05/24 09:54:34;;;;;;;2.93;0.97;;;17.90;53.40;17.50;97596.00;;;;5016036;28;20316;-83
2022/05/24 09:57:07;;;;;;;0.37;0.37;;;18.00;54.50;17.70;97594.00;;;;5017241;28;20267;-81
2022/05/24 09:59:40;;;;;;;0.50;0.50;;;18.30;51.00;17.80;97590.00;;;;5006641;28;20236;-83
2022/05/24 10:02:24;;;;;;;0.43;0.43;;;18.20;49.70;17.80;97608.00;;;;5025609;28;20308;-84
2022/05/24 10:04:51;;;;;;;0.47;0.47;;;18.30;49.30;17.90;97602.00;;;;5025794;28;20198;-78
2022/05/24 10:07:24;;;;;;;0.40;0.40;;;18.30;49.20;18.00;97607.00;;;;5025134;28;20221;-81
2022/05/24 10:10:02;;;;;;;0.40;0.40;;;18.50;49.20;17.80;97608.00;;;;4997954;28;20653;-83
2022/05/24 10:13:01;;;;;;;0.57;0.57;;;18.40;47.20;17.80;97619.00;;;;5015520;28;20197;-85
2022/05/24 10:15:37;;;;;;;0.50;0.50;;;18.30;45.80;17.80;97605.00;;;;5015387;28;20284;-83
2022/05/24 10:18:34;;;;;;;0.60;0.60;;;18.10;45.60;17.60;97598.00;;;;5015513;28;20220;-83
2022/05/24 10:21:16;;;;;;;0.47;0.47;;;18.30;47.00;18.20;97603.00;;;;5015203;28;20233;-83
2022/05/24 10:23:54;;;;;;;0.40;0.40;;;18.80;43.50;18.30;97603.00;;;;5015268;28;20629;-83
2022/05/24 10:26:42;;;;;;;0.40;0.40;;;18.90;44.90;18.60;97604.00;;;;5015112;28;20224;-83
2022/05/24 10:29:21;;;;;;;0.50;0.50;;;18.90;43.90;18.70;97608.00;;;;5015249;28;20209;-84
2022/05/24 10:31:57;;;;;;;0.40;0.40;;;19.10;43.40;18.70;97580.00;;;;5015002;28;20198;-81
2022/05/24 10:40:43;;;;;;;0.40;0.40;;;19.40;42.80;19.30;97612.00;;;;5014930;28;20221;-81
2022/05/24 10:43:37;;;;;;;0.40;0.40;;;19.60;42.60;19.40;97595.00;;;;5015362;28;20197;-81
2022/05/24 10:46:13;;;;;;;0.40;0.40;;;19.70;41.10;19.50;97587.00;;;;5014808;28;20681;-83
2022/05/24 10:48:48;;;;;;;0.40;0.40;;;19.80;42.50;19.40;97597.00;;;;5014897;28;20197;-80
2022/05/24 10:51:28;;;;;;;0.37;0.37;;;19.90;43.10;19.50;97609.00;;;;5014839;28;20232;-79
2022/05/24 10:54:02;;;;;;;0.50;0.50;;;19.80;41.80;19.60;97612.00;;;;5014729;28;20216;-84
2022/05/24 10:56:39;;;;;;;0.40;0.40;;;20.00;40.30;19.70;97596.00;;;;5014760;28;20197;-84
2022/05/24 10:59:20;;;;;;;0.50;0.50;;;20.10;40.20;19.50;97592.00;;;;5014861;28;20201;-82
2022/05/24 11:01:55;;;;;;;0.40;0.40;;;20.00;40.00;19.50;97595.00;;;;4997620;28;20299;-84
2022/05/24 11:04:38;;;;;;;0.77;0.77;;;;;19.80;97606.00;;;;5014541;28;20613;-78
2022/05/24 11:07:14;;;;;;;0.30;0.30;;;20.10;40.00;19.90;97593.00;;;;5014625;28;20667;-82
2022/05/24 11:09:50;;;;;;;0.40;0.40;;;;;19.80;97593.00;;;;5014622;28;20748;-77
2022/05/24 11:12:24;;;;;;;0.40;0.40;;;20.20;39.70;20.00;97597.00;;;;5015186;28;20208;-80
2022/05/24 11:14:57;;;;;;;0.40;0.40;;;20.30;40.20;19.50;97605.00;;;;5019376;28;20213;-76
2022/05/24 11:17:24;;;;;;;1.33;0.93;;;20.00;39.20;19.30;97606.00;;;;5018871;28;20225;-79
2022/05/24 11:19:55;;;;;;;1.90;0.57;;;19.90;40.40;19.60;97604.00;;;;5019669;28;20202;-80
2022/05/24 11:22:33;;;;;;;0.83;0.83;;;20.00;40.20;19.60;97599.00;;;;5017393;28;20253;-82
2022/05/24 11:25:14;;;;;;;0.60;0.60;;;20.10;39.70;19.40;97597.00;;;;5019519;28;20197;-84
2022/05/24 11:27:47;;;;;;;0.40;0.40;;;19.90;40.70;19.80;97600.00;;;;4999094;28;20543;-85
2022/05/24 11:30:18;;;;;;;0.50;0.50;;;;;19.90;97600.00;;;;5014835;28;20197;-82
2022/05/24 11:32:50;;;;;;;0.90;0.90;;;20.30;37.60;19.50;97599.00;;;;5014277;28;20174;-84
2022/05/24 11:35:29;;;;;;;0.40;0.40;;;20.10;37.30;19.10;97606.00;;;;5014402;28;20283;-82
2022/05/24 11:38:09;;;;;;;0.40;0.40;;;;;19.20;97602.00;;;;5014113;28;20252;-83
2022/05/24 11:40:40;;;;;;;0.50;0.50;;;19.70;38.30;19.20;97593.00;;;;5014006;28;20284;-83
2022/05/24 11:43:10;;;;;;;0.40;0.40;;;19.70;38.90;19.50;97607.00;;;;5013989;28;20213;-80
2022/05/24 11:46:02;;;;;;;0.50;0.50;;;19.90;37.40;19.50;97586.00;;;;5013985;28;20201;-83